createdAt,value
2018-03-25T00:01:40.173Z,99896
2018-03-25T00:04:07.404Z,99900
2018-03-25T00:06:38.663Z,99902
2018-03-25T00:09:05.933Z,99903
2018-03-25T00:11:34.434Z,99900
2018-03-25T00:14:01.429Z,99903
2018-03-25T00:16:31.881Z,99907
2018-03-25T00:18:59.217Z,99910
2018-03-25T00:21:26.519Z,99912
2018-03-25T00:23:54.361Z,99914
2018-03-25T00:26:21.570Z,99915
2018-03-25T00:28:48.616Z,99911
2018-03-25T00:31:16.665Z,99915
2018-03-25T00:33:43.861Z,99914
2018-03-25T00:36:14.170Z,99924
2018-03-25T00:38:41.349Z,99920
2018-03-25T00:41:08.533Z,99917
2018-03-25T00:43:37.006Z,99911
2018-03-25T00:46:04.434Z,99910
2018-03-25T00:48:31.730Z,99903
2018-03-25T00:50:59.325Z,99906
2018-03-25T00:53:27.303Z,99899
2018-03-25T00:55:54.566Z,99901
2018-03-25T00:58:21.715Z,99898
2018-03-25T01:00:48.970Z,99895
2018-03-25T01:03:16.178Z,99903
2018-03-25T01:05:43.409Z,99903
2018-03-25T01:08:14.109Z,99905
2018-03-25T01:10:41.328Z,99909
2018-03-25T01:13:08.606Z,99907
2018-03-25T01:15:53.802Z,99909
2018-03-25T01:18:21.062Z,99909
2018-03-25T01:20:51.186Z,99906
2018-03-25T01:23:18.892Z,99910
2018-03-25T01:25:46.182Z,99918
2018-03-25T01:28:13.481Z,99933
2018-03-25T01:30:40.634Z,99934
2018-03-25T01:33:07.985Z,99940
2018-03-25T01:35:35.178Z,99941
2018-03-25T01:38:02.483Z,99937
2018-03-25T01:40:29.600Z,99937
2018-03-25T01:42:56.820Z,99940
2018-03-25T01:45:27.607Z,99942
2018-03-25T01:47:58.294Z,99942
2018-03-25T01:50:26.559Z,99948
2018-03-25T01:52:53.655Z,99953
2018-03-25T01:55:21.629Z,99957
2018-03-25T01:57:49.938Z,99962
2018-03-25T02:00:17.474Z,99966
2018-03-25T02:02:44.709Z,99963
2018-03-25T02:05:12.013Z,99963
2018-03-25T02:07:40.169Z,99970
2018-03-25T02:10:08.171Z,99969
2018-03-25T02:12:35.496Z,99968
2018-03-25T02:15:02.621Z,99974
2018-03-25T02:17:33.498Z,99981
2018-03-25T02:20:00.674Z,99983
2018-03-25T02:22:27.913Z,99983
2018-03-25T02:24:55.192Z,99980
2018-03-25T02:27:23.713Z,99986
2018-03-25T02:29:51.017Z,99986
2018-03-25T02:32:18.323Z,99988
2018-03-25T02:34:46.213Z,99985
2018-03-25T02:37:16.965Z,99987
2018-03-25T02:39:44.249Z,99987
2018-03-25T02:42:11.953Z,99984
2018-03-25T02:44:39.091Z,99986
2018-03-25T02:47:06.511Z,99993
2018-03-25T02:49:33.703Z,99994
2018-03-25T02:52:00.991Z,100002
2018-03-25T02:54:27.960Z,100009
2018-03-25T02:56:55.206Z,100010
2018-03-25T02:59:22.421Z,100014
2018-03-25T03:01:49.705Z,100013
2018-03-25T03:04:16.953Z,100013
2018-03-25T03:06:45.362Z,100014
2018-03-25T03:09:13.790Z,100019
2018-03-25T03:11:41.089Z,100020
2018-03-25T03:14:09.010Z,100021
2018-03-25T03:16:39.502Z,100019
2018-03-25T03:19:06.641Z,100025
2018-03-25T03:21:33.834Z,100024
2018-03-25T03:24:01.061Z,100022
2018-03-25T03:26:28.374Z,100024
2018-03-25T03:28:56.178Z,100016
2018-03-25T03:31:23.480Z,100013
2018-03-25T03:33:50.635Z,100017
2018-03-25T03:36:17.938Z,100019
2018-03-25T03:38:45.269Z,100021
2018-03-25T03:41:13.336Z,100024
2018-03-25T03:43:40.503Z,100023
2018-03-25T03:46:07.756Z,100025
2018-03-25T03:48:35.125Z,100026
2018-03-25T03:51:02.267Z,100029
2018-03-25T03:53:29.596Z,100029
2018-03-25T03:55:57.074Z,100036
2018-03-25T03:58:24.201Z,100034
2018-03-25T04:00:51.297Z,100032
2018-03-25T04:03:18.500Z,100039
2018-03-25T04:05:45.802Z,100037
2018-03-25T04:08:12.993Z,100033
2018-03-25T04:10:40.174Z,100035
2018-03-25T04:13:07.377Z,100038
2018-03-25T04:15:34.690Z,100038
2018-03-25T04:18:02.036Z,100040
2018-03-25T04:20:29.233Z,100041
2018-03-25T04:22:56.490Z,100042
2018-03-25T04:25:24.553Z,100049
2018-03-25T04:27:51.801Z,100050
2018-03-25T04:30:19.030Z,100054
2018-03-25T04:32:46.330Z,100058
2018-03-25T04:35:13.594Z,100059
2018-03-25T04:37:42.838Z,100066
2018-03-25T04:40:10.265Z,100065
2018-03-25T04:42:37.464Z,100069
2018-03-25T04:45:04.574Z,100066
2018-03-25T04:47:32.957Z,100075
2018-03-25T04:50:00.206Z,100085
2018-03-25T04:52:27.309Z,100084
2018-03-25T04:54:54.364Z,100080
2018-03-25T04:57:21.748Z,100080
2018-03-25T04:59:49.004Z,100086
2018-03-25T05:02:16.163Z,100083
2018-03-25T05:04:43.329Z,100088
2018-03-25T05:07:13.889Z,100090
2018-03-25T05:09:41.130Z,100095
2018-03-25T05:12:08.345Z,100092
2018-03-25T05:14:35.571Z,100094
2018-03-25T05:17:03.845Z,100092
2018-03-25T05:19:31.130Z,100094
2018-03-25T05:21:58.426Z,100093
2018-03-25T05:24:25.685Z,100096
2018-03-25T05:26:56.738Z,100098
2018-03-25T05:29:24.267Z,100106
2018-03-25T05:31:51.468Z,100107
2018-03-25T05:34:18.854Z,100110
2018-03-25T05:36:49.446Z,100118
2018-03-25T05:39:16.706Z,100120
2018-03-25T05:41:44.071Z,100127
2018-03-25T05:44:11.498Z,100125
2018-03-25T05:46:42.153Z,100125
2018-03-25T05:49:09.317Z,100121
2018-03-25T05:51:36.556Z,100123
2018-03-25T05:54:03.877Z,100120
2018-03-25T05:56:32.274Z,100119
2018-03-25T05:58:59.542Z,100121
2018-03-25T06:01:26.909Z,100135
2018-03-25T06:03:54.241Z,100136
2018-03-25T06:06:21.522Z,100137
2018-03-25T06:08:49.678Z,100139
2018-03-25T06:11:16.753Z,100139
2018-03-25T06:13:43.886Z,100132
2018-03-25T06:16:12.029Z,100135
2018-03-25T06:18:39.261Z,100136
2018-03-25T06:21:06.978Z,100134
2018-03-25T06:23:34.195Z,100137
2018-03-25T06:26:01.655Z,100134
2018-03-25T06:28:29.702Z,100133
2018-03-25T06:30:57.010Z,100137
2018-03-25T06:33:24.122Z,100139
2018-03-25T06:35:52.086Z,100140
2018-03-25T06:38:19.402Z,100144
2018-03-25T06:40:46.547Z,100148
2018-03-25T06:43:13.894Z,100163
2018-03-25T06:45:42.925Z,100165
2018-03-25T06:48:10.826Z,100164
2018-03-25T06:50:38.037Z,100175
2018-03-25T06:53:05.269Z,100174
2018-03-25T06:55:32.772Z,100179
2018-03-25T06:58:00.087Z,100179
2018-03-25T07:00:27.375Z,100189
2018-03-25T07:02:54.544Z,100191
2018-03-25T07:05:22.885Z,100199
2018-03-25T07:07:50.171Z,100205
2018-03-25T07:10:17.712Z,100210
2018-03-25T07:12:45.047Z,100217
2018-03-25T07:15:13.457Z,100215
2018-03-25T07:17:40.834Z,100224
2018-03-25T07:20:08.101Z,100224
2018-03-25T07:22:35.409Z,100233
2018-03-25T07:25:02.550Z,100227
2018-03-25T07:27:29.808Z,100232
2018-03-25T07:29:57.050Z,100234
2018-03-25T07:32:24.429Z,100234
2018-03-25T07:34:52.337Z,100238
2018-03-25T07:37:19.627Z,100233
2018-03-25T07:39:47.443Z,100230
2018-03-25T07:42:14.694Z,100236
2018-03-25T07:44:41.941Z,100243
2018-03-25T07:47:09.358Z,100247
2018-03-25T07:49:36.641Z,100253
2018-03-25T07:52:03.904Z,100254
2018-03-25T07:54:31.134Z,100255
2018-03-25T07:56:59.480Z,100259
2018-03-25T07:59:27.424Z,100264
2018-03-25T08:01:55.397Z,100262
2018-03-25T08:04:22.466Z,100269
2018-03-25T08:06:53.835Z,100270
2018-03-25T08:09:21.091Z,100268
2018-03-25T08:11:48.361Z,100264
2018-03-25T08:14:15.651Z,100263
2018-03-25T08:16:43.763Z,100264
2018-03-25T08:19:10.981Z,100271
2018-03-25T08:21:38.244Z,100263
2018-03-25T08:24:05.536Z,100265
2018-03-25T08:26:32.846Z,100266
2018-03-25T08:29:00.161Z,100263
2018-03-25T08:31:27.313Z,100267
2018-03-25T08:33:54.481Z,100275
2018-03-25T08:36:23.553Z,100271
2018-03-25T08:38:50.843Z,100274
2018-03-25T08:41:18.295Z,100278
2018-03-25T08:43:45.539Z,100283
2018-03-25T08:46:12.772Z,100278
2018-03-25T08:48:40.088Z,100284
2018-03-25T08:51:07.359Z,100292
2018-03-25T08:53:35.326Z,100288
2018-03-25T08:56:03.725Z,100293
2018-03-25T08:58:30.894Z,100297
2018-03-25T09:00:58.164Z,100294
2018-03-25T09:03:25.270Z,100300
2018-03-25T09:05:55.738Z,100301
2018-03-25T09:08:22.900Z,100307
2018-03-25T09:10:50.298Z,100300
2018-03-25T09:13:17.558Z,100300
2018-03-25T09:15:51.805Z,100302
2018-03-25T09:18:19.082Z,100307
2018-03-25T09:20:46.391Z,100312
2018-03-25T09:23:13.586Z,100307
2018-03-25T09:25:41.706Z,100322
2018-03-25T09:28:09.034Z,100315
2018-03-25T09:30:36.285Z,100320
2018-03-25T09:33:03.569Z,100325
2018-03-25T09:35:30.794Z,100324
2018-03-25T09:37:58.799Z,100333
2018-03-25T09:40:26.075Z,100325
2018-03-25T09:42:53.317Z,100330
2018-03-25T09:45:21.662Z,100337
2018-03-25T09:47:48.830Z,100332
2018-03-25T09:50:16.283Z,100334
2018-03-25T09:52:43.638Z,100336
2018-03-25T09:55:10.914Z,100329
2018-03-25T09:57:38.127Z,100330
2018-03-25T10:00:05.355Z,100337
2018-03-25T10:02:38.690Z,100337
2018-03-25T10:05:05.970Z,100335
2018-03-25T10:07:33.180Z,100332
2018-03-25T10:10:00.353Z,100336
2018-03-25T10:12:27.617Z,100330
2018-03-25T10:14:56.231Z,100327
2018-03-25T10:17:23.359Z,100331
2018-03-25T10:19:50.633Z,100333
2018-03-25T10:22:19.287Z,100328
2018-03-25T10:24:46.608Z,100324
2018-03-25T10:27:14.164Z,100320
2018-03-25T10:29:41.393Z,100321
2018-03-25T10:32:08.725Z,100322
2018-03-25T10:34:37.233Z,100319
2018-03-25T10:37:04.370Z,100316
2018-03-25T10:39:31.797Z,100316
2018-03-25T10:41:59.028Z,100321
2018-03-25T10:44:26.481Z,100324
2018-03-25T10:46:53.751Z,100318
2018-03-25T10:49:21.078Z,100322
2018-03-25T10:51:48.219Z,100322
2018-03-25T10:54:15.717Z,100325
2018-03-25T10:56:43.075Z,100330
2018-03-25T10:59:10.204Z,100322
2018-03-25T11:01:37.366Z,100332
2018-03-25T11:04:04.527Z,100324
2018-03-25T11:06:31.858Z,100329
2018-03-25T11:08:59.054Z,100328
2018-03-25T11:11:26.639Z,100331
2018-03-25T11:13:53.819Z,100327
2018-03-25T11:16:21.388Z,100325
2018-03-25T11:18:48.626Z,100329
2018-03-25T11:21:16.474Z,100333
2018-03-25T11:23:43.693Z,100328
2018-03-25T11:26:14.578Z,100324
2018-03-25T11:28:41.998Z,100318
2018-03-25T11:31:09.242Z,100321
2018-03-25T11:33:37.099Z,100322
2018-03-25T11:36:06.515Z,100324
2018-03-25T11:38:33.678Z,100321
2018-03-25T11:41:00.908Z,100313
2018-03-25T11:43:28.066Z,100304
2018-03-25T11:45:59.203Z,100300
2018-03-25T11:48:26.461Z,100297
2018-03-25T11:50:53.620Z,100285
2018-03-25T11:53:20.870Z,100287
2018-03-25T11:55:53.207Z,100279
2018-03-25T11:58:20.490Z,100276
2018-03-25T12:00:47.798Z,100271
2018-03-25T12:03:15.127Z,100267
2018-03-25T12:05:43.383Z,100264
2018-03-25T12:08:10.773Z,100267
2018-03-25T12:10:37.926Z,100275
2018-03-25T12:13:05.274Z,100271
2018-03-25T12:15:33.739Z,100280
2018-03-25T12:18:01.125Z,100278
2018-03-25T12:20:28.329Z,100277
2018-03-25T12:22:55.651Z,100277
2018-03-25T12:25:23.023Z,100278
2018-03-25T12:27:50.192Z,100288
2018-03-25T12:30:17.326Z,100279
2018-03-25T12:32:44.487Z,100279
2018-03-25T12:35:14.083Z,100281
2018-03-25T12:37:41.297Z,100274
2018-03-25T12:40:08.430Z,100276
2018-03-25T12:42:36.058Z,100267
2018-03-25T12:45:03.338Z,100277
2018-03-25T12:50:21.107Z,100281
2018-03-25T12:52:48.856Z,100278
2018-03-25T12:55:17.368Z,100281
2018-03-25T12:57:44.612Z,100275
2018-03-25T13:00:12.333Z,100274
2018-03-25T13:02:39.587Z,100266
2018-03-25T13:05:06.964Z,100277
2018-03-25T13:07:49.118Z,100279
2018-03-25T13:10:16.467Z,100277
2018-03-25T13:12:43.567Z,100280
2018-03-25T13:15:11.031Z,100280
2018-03-25T13:17:39.094Z,100274
2018-03-25T13:20:06.489Z,100274
2018-03-25T13:22:33.678Z,100279
2018-03-25T13:25:01.769Z,100281
2018-03-25T13:27:29.008Z,100277
2018-03-25T13:29:56.601Z,100275
2018-03-25T13:32:24.650Z,100275
2018-03-25T13:34:55.754Z,100281
2018-03-25T13:37:23.088Z,100279
2018-03-25T13:39:50.346Z,100282
2018-03-25T13:42:17.505Z,100278
2018-03-25T13:44:48.649Z,100277
2018-03-25T13:47:15.894Z,100284
2018-03-25T13:49:43.058Z,100278
2018-03-25T13:52:10.212Z,100282
2018-03-25T13:54:40.933Z,100289
2018-03-25T13:57:08.887Z,100285
2018-03-25T13:59:36.813Z,100288
2018-03-25T14:02:04.004Z,100287
2018-03-25T14:04:32.287Z,100295
2018-03-25T14:06:59.507Z,100299
2018-03-25T14:09:26.593Z,100302
2018-03-25T14:11:53.971Z,100308
2018-03-25T14:14:25.495Z,100305
2018-03-25T14:16:52.650Z,100309
2018-03-25T14:19:19.824Z,100308
2018-03-25T14:21:47.183Z,100311
2018-03-25T14:24:17.790Z,100306
2018-03-25T14:26:45.039Z,100304
2018-03-25T14:29:12.189Z,100307
2018-03-25T14:31:39.312Z,100310
2018-03-25T14:34:06.630Z,100306
2018-03-25T14:36:33.840Z,100309
2018-03-25T14:39:01.079Z,100311
2018-03-25T14:41:28.287Z,100313
2018-03-25T14:43:55.535Z,100314
2018-03-25T14:46:22.774Z,100311
2018-03-25T14:48:49.891Z,100311
2018-03-25T14:51:17.805Z,100307
2018-03-25T14:53:45.105Z,100311
2018-03-25T14:56:12.364Z,100308
2018-03-25T14:58:39.667Z,100315
2018-03-25T15:01:06.836Z,100311
2018-03-25T15:03:34.066Z,100309
2018-03-25T15:06:02.279Z,100305
2018-03-25T15:08:29.466Z,100308
2018-03-25T15:10:56.751Z,100314
2018-03-25T15:13:24.031Z,100316
2018-03-25T15:15:55.673Z,100324
2018-03-25T15:18:22.807Z,100322
2018-03-25T15:20:50.423Z,100325
2018-03-25T15:23:17.628Z,100320
2018-03-25T15:25:44.971Z,100318
2018-03-25T15:28:12.210Z,100316
2018-03-25T15:30:39.409Z,100315
2018-03-25T15:33:06.574Z,100315
2018-03-25T15:35:40.374Z,100311
2018-03-25T15:38:07.562Z,100315
2018-03-25T15:40:34.603Z,100312
2018-03-25T15:43:02.480Z,100310
2018-03-25T15:45:33.421Z,100309
2018-03-25T15:48:00.630Z,100307
2018-03-25T15:50:27.802Z,100308
2018-03-25T15:52:54.983Z,100310
2018-03-25T15:55:23.206Z,100300
2018-03-25T15:57:50.403Z,100300
2018-03-25T16:00:17.683Z,100300
2018-03-25T16:02:45.028Z,100302
2018-03-25T16:05:16.406Z,100303
2018-03-25T16:07:43.596Z,100302
2018-03-25T16:10:10.746Z,100301
2018-03-25T16:12:37.925Z,100301
2018-03-25T16:15:09.571Z,100306
2018-03-25T16:17:37.513Z,100309
2018-03-25T16:20:04.712Z,100309
2018-03-25T16:22:31.873Z,100312
2018-03-25T16:25:00.074Z,100307
2018-03-25T16:27:27.318Z,100312
2018-03-25T16:29:55.363Z,100309
2018-03-25T16:32:23.054Z,100300
2018-03-25T16:34:51.645Z,100292
2018-03-25T16:37:19.699Z,100299
2018-03-25T16:39:46.897Z,100310
2018-03-25T16:42:14.172Z,100316
2018-03-25T16:44:47.740Z,100320
2018-03-25T16:47:15.029Z,100327
2018-03-25T16:49:42.254Z,100324
2018-03-25T16:52:09.503Z,100322
2018-03-25T16:54:37.863Z,100321
2018-03-25T16:57:04.961Z,100321
2018-03-25T16:59:32.323Z,100321
2018-03-25T17:02:00.110Z,100331
2018-03-25T17:04:31.126Z,100330
2018-03-25T17:06:58.378Z,100334
2018-03-25T17:09:26.399Z,100339
2018-03-25T17:11:53.700Z,100341
2018-03-25T17:14:25.333Z,100338
2018-03-25T17:16:52.665Z,100341
2018-03-25T17:19:20.051Z,100341
2018-03-25T17:21:47.241Z,100337
2018-03-25T17:24:18.642Z,100338
2018-03-25T17:26:45.929Z,100333
2018-03-25T17:29:13.365Z,100333
2018-03-25T17:31:40.659Z,100331
2018-03-25T17:34:11.442Z,100334
2018-03-25T17:36:38.541Z,100333
2018-03-25T17:39:05.691Z,100333
2018-03-25T17:41:33.362Z,100333
2018-03-25T17:44:05.113Z,100335
2018-03-25T17:46:32.318Z,100336
2018-03-25T17:49:00.270Z,100338
2018-03-25T17:51:27.661Z,100344
2018-03-25T17:53:58.527Z,100342
2018-03-25T17:56:25.985Z,100347
2018-03-25T17:58:55.047Z,100349
2018-03-25T18:01:23.294Z,100352
2018-03-25T18:03:55.928Z,100351
2018-03-25T18:06:23.235Z,100346
2018-03-25T18:08:50.416Z,100344
2018-03-25T18:11:17.695Z,100350
2018-03-25T18:13:48.288Z,100351
2018-03-25T18:16:15.695Z,100348
2018-03-25T18:18:43.387Z,100352
2018-03-25T18:21:10.714Z,100353
2018-03-25T18:23:41.015Z,100359
2018-03-25T18:26:08.385Z,100354
2018-03-25T18:28:36.563Z,100360
2018-03-25T18:31:04.213Z,100359
2018-03-25T18:33:32.479Z,100363
2018-03-25T18:35:59.806Z,100371
2018-03-25T18:38:27.015Z,100369
2018-03-25T18:40:55.250Z,100372
2018-03-25T18:43:25.581Z,100378
2018-03-25T18:45:53.619Z,100369
2018-03-25T18:48:20.895Z,100373
2018-03-25T18:50:49.050Z,100370
2018-03-25T18:53:16.299Z,100378
2018-03-25T18:55:44.179Z,100373
2018-03-25T18:58:12.050Z,100370
2018-03-25T19:00:39.611Z,100369
2018-03-25T19:03:06.794Z,100360
2018-03-25T19:05:34.939Z,100365
2018-03-25T19:08:02.822Z,100369
2018-03-25T19:10:30.115Z,100363
2018-03-25T19:12:59.099Z,100364
2018-03-25T19:15:29.447Z,100367
2018-03-25T19:17:56.771Z,100369
2018-03-25T19:20:23.949Z,100372
2018-03-25T19:22:51.245Z,100365
2018-03-25T19:25:18.554Z,100370
2018-03-25T19:27:46.067Z,100372
2018-03-25T19:30:13.874Z,100367
2018-03-25T19:32:41.991Z,100371
2018-03-25T19:35:13.210Z,100366
2018-03-25T19:37:43.053Z,100365
2018-03-25T19:40:10.142Z,100363
2018-03-25T19:42:38.150Z,100356
2018-03-25T19:45:05.611Z,100361
2018-03-25T19:47:34.001Z,100360
2018-03-25T19:50:01.365Z,100360
2018-03-25T19:52:28.744Z,100355
2018-03-25T19:54:56.361Z,100356
2018-03-25T19:57:23.727Z,100356
2018-03-25T19:59:50.795Z,100355
2018-03-25T20:02:18.011Z,100353
2018-03-25T20:04:49.201Z,100350
2018-03-25T20:07:16.484Z,100341
2018-03-25T20:09:43.655Z,100346
2018-03-25T20:12:11.031Z,100340
2018-03-25T20:14:39.522Z,100339
2018-03-25T20:17:06.872Z,100342
2018-03-25T20:19:35.046Z,100347
2018-03-25T20:22:02.650Z,100336
2018-03-25T20:24:31.323Z,100331
2018-03-25T20:26:58.554Z,100326
2018-03-25T20:29:26.570Z,100323
2018-03-25T20:31:53.939Z,100321
2018-03-25T20:34:21.495Z,100323
2018-03-25T20:36:49.699Z,100320
2018-03-25T20:39:17.011Z,100314
2018-03-25T20:41:44.215Z,100307
2018-03-25T20:44:12.604Z,100312
2018-03-25T20:46:39.743Z,100307
2018-03-25T20:49:07.509Z,100312
2018-03-25T20:51:34.826Z,100314
2018-03-25T20:54:03.399Z,100307
2018-03-25T20:56:31.335Z,100310
2018-03-25T20:58:58.501Z,100311
2018-03-25T21:01:25.746Z,100319
2018-03-25T21:03:54.143Z,100313
2018-03-25T21:06:21.393Z,100314
2018-03-25T21:08:48.550Z,100310
2018-03-25T21:11:15.910Z,100322
2018-03-25T21:13:47.102Z,100321
2018-03-25T21:16:14.214Z,100314
2018-03-25T21:18:41.433Z,100326
2018-03-25T21:21:08.689Z,100323
2018-03-25T21:23:40.259Z,100326
2018-03-25T21:26:07.537Z,100320
2018-03-25T21:28:34.733Z,100322
2018-03-25T21:31:01.949Z,100322
2018-03-25T21:33:30.162Z,100327
2018-03-25T21:35:57.880Z,100326
2018-03-25T21:38:25.217Z,100323
2018-03-25T21:40:52.492Z,100329
2018-03-25T21:43:23.473Z,100318
2018-03-25T21:45:50.732Z,100320
2018-03-25T21:48:17.935Z,100313
2018-03-25T21:50:45.167Z,100311
2018-03-25T21:53:17.918Z,100304
2018-03-25T21:55:45.746Z,100304
2018-03-25T21:58:12.848Z,100305
2018-03-25T22:00:40.010Z,100303
2018-03-25T22:03:08.296Z,100305
2018-03-25T22:05:35.611Z,100304
2018-03-25T22:08:02.790Z,100303
2018-03-25T22:10:30.444Z,100293
2018-03-25T22:12:58.690Z,100295
2018-03-25T22:15:25.906Z,100298
2018-03-25T22:17:53.181Z,100292
2018-03-25T22:20:20.522Z,100298
2018-03-25T22:22:48.331Z,100299
2018-03-25T22:25:15.557Z,100299
2018-03-25T22:27:42.931Z,100291
2018-03-25T22:30:10.166Z,100297
2018-03-25T22:32:37.279Z,100295
2018-03-25T22:35:04.455Z,100295
2018-03-25T22:37:31.731Z,100299
2018-03-25T22:39:59.028Z,100285
2018-03-25T22:42:26.285Z,100283
2018-03-25T22:44:57.343Z,100282
2018-03-25T22:47:24.662Z,100275
2018-03-25T22:49:52.052Z,100281
2018-03-25T22:52:19.160Z,100281
2018-03-25T22:54:47.345Z,100279
2018-03-25T22:57:14.601Z,100280
2018-03-25T22:59:41.924Z,100286
2018-03-25T23:02:08.948Z,100283
2018-03-25T23:04:39.608Z,100279
2018-03-25T23:07:07.617Z,100272
2018-03-25T23:09:34.697Z,100270
2018-03-25T23:12:02.007Z,100270
2018-03-25T23:14:32.813Z,100263
2018-03-25T23:17:00.748Z,100260
2018-03-25T23:19:28.110Z,100260
2018-03-25T23:21:55.384Z,100263
2018-03-25T23:24:25.957Z,100261
2018-03-25T23:26:53.197Z,100259
2018-03-25T23:29:20.498Z,100253
2018-03-25T23:31:47.781Z,100249
2018-03-25T23:34:18.102Z,100248
2018-03-25T23:36:45.522Z,100243
2018-03-25T23:39:12.738Z,100237
2018-03-25T23:41:40.484Z,100224
2018-03-25T23:44:07.809Z,100229
2018-03-25T23:46:35.393Z,100221
2018-03-25T23:49:02.500Z,100215
2018-03-25T23:51:29.686Z,100207
2018-03-25T23:54:00.260Z,100200
2018-03-25T23:56:27.550Z,100195
2018-03-25T23:58:54.833Z,100191
